METAR Data
IDs: Format: Raw Decoded Include TAF

Data at: 1020 UTC 18 Jan 2022

GMMB 181000Z 17004KT 150V210 9999 FEW010 SCT013 BKN200 10/06 Q1027 NOSIG